Terminal Aerodrome Forecast
Issued by NWS Wilmington, NC

Home | Current Version | Previous Version | Text Only | Print | Product List | Glossary On
Versions: 1 2 3 4 5 6 7 8 9 10 11 12 13
000
FTUS42 KILM 241700
TAFILM
TAF
KILM 241739Z 2418/2518 14008KT P6SM SKC
     FM250200 VRB02KT P6SM SKC
     FM250900 00000KT P6SM VCSH BKN020
     FM251500 19009KT 5SM -SHRA BKN035=

USA.gov is the U.S. government's official web portal to all federal, state and local government web resources and services.